Time;durP1;ratioP1;P1;durP2;ratioP2;P2;SDS_P1;SDS_P2;PMS_P1;PMS_P2;Temp;Humidity;BMP_temperature;BMP_pressure;BME280_temperature;BME280_humidity;BME280_pressure;Samples;Min_cycle;Max_cycle;Signal;HPM_P1;HPM_P2
2021/06/16 00:01:06;;;;;;;4.73;3.03;;;;;;;15.27;61.40;96867.88;127844;1093;24959;-90
2021/06/16 00:03:37;;;;;;;4.80;3.10;;;;;;;15.26;61.34;96866.30;127711;1093;114525;-93
2021/06/16 00:06:09;;;;;;;4.75;3.28;;;;;;;15.26;61.25;96876.19;127839;1093;27762;-95
2021/06/16 00:08:41;;;;;;;4.58;2.63;;;;;;;15.26;61.02;96870.85;127797;1093;33027;-95
2021/06/16 00:11:13;;;;;;;6.58;3.08;;;;;;;15.26;60.99;96876.98;127741;1092;113516;-93
2021/06/16 00:13:44;;;;;;;4.48;2.85;;;;;;;15.18;61.09;96874.23;127844;1092;28209;-93
2021/06/16 00:16:16;;;;;;;4.73;2.73;;;;;;;15.05;61.29;96875.83;127779;1092;113745;-92
2021/06/16 00:18:47;;;;;;;5.28;2.98;;;;;;;14.97;61.43;96871.22;128059;1093;29142;-95
2021/06/16 00:21:20;;;;;;;4.88;2.70;;;;;;;14.92;61.52;96871.30;127715;1093;113887;-94
2021/06/16 00:23:52;;;;;;;5.37;2.60;;;;;;;14.84;61.68;96878.95;127833;1093;28721;-93
2021/06/16 00:26:23;;;;;;;5.88;2.55;;;;;;;14.87;61.80;96879.43;127877;1093;26327;-92
2021/06/16 00:28:55;;;;;;;4.13;2.57;;;;;;;14.86;61.88;96875.97;127730;1093;112971;-92
2021/06/16 00:31:27;;;;;;;5.10;3.43;;;;;;;14.67;62.10;96870.77;127834;1093;25726;-93
2021/06/16 00:33:58;;;;;;;6.13;3.25;;;;;;;14.57;62.34;96880.84;127725;1093;113679;-93
2021/06/16 00:36:30;;;;;;;6.00;3.20;;;;;;;14.54;62.74;96880.34;127841;1093;26175;-92
2021/06/16 00:39:01;;;;;;;7.50;3.60;;;;;;;14.54;62.85;96880.34;127911;1093;28759;-93
2021/06/16 00:41:33;;;;;;;5.90;3.60;;;;;;;14.53;62.94;96880.65;127778;1093;113602;-94
2021/06/16 00:44:04;;;;;;;5.73;3.10;;;;;;;14.49;62.99;96879.64;127914;1093;25312;-92
2021/06/16 00:46:36;;;;;;;5.50;3.13;;;;;;;14.48;63.18;96878.06;127690;1092;114345;-93
2021/06/16 00:49:09;;;;;;;7.18;3.63;;;;;;;14.45;62.95;96878.66;127847;1093;25591;-93
2021/06/16 00:51:40;;;;;;;6.28;3.33;;;;;;;14.49;63.16;96868.97;127749;1093;114000;-94
2021/06/16 00:54:12;;;;;;;4.45;3.10;;;;;;;14.48;63.23;96867.39;127821;1092;26112;-93
2021/06/16 00:56:44;;;;;;;6.00;3.40;;;;;;;14.47;63.13;96863.14;127816;1094;27703;-93
2021/06/16 00:59:16;;;;;;;6.70;4.10;;;;;;;14.49;63.24;96860.97;127741;1093;113682;-92
2021/06/16 01:01:50;;;;;;;4.70;3.30;;;;;;;14.50;63.30;96859.91;127837;1093;34817;-93
2021/06/16 01:04:25;;;;;;;5.63;3.40;;;;;;;14.53;63.29;96867.31;127719;1093;114218;-93
2021/06/16 01:07:00;;;;;;;6.75;3.35;;;;;;;14.53;63.06;96860.09;127875;1092;26087;-94
2021/06/16 01:09:34;;;;;;;5.58;3.10;;;;;;;14.59;63.03;96863.44;127759;1093;114511;-94
2021/06/16 01:12:14;;;;;;;5.95;3.25;;;;;;;14.62;63.02;96860.17;127930;1093;24951;-94
2021/06/16 01:14:52;;;;;;;5.58;2.95;;;;;;;14.55;63.06;96851.79;127827;1093;24996;-94
2021/06/16 01:17:28;;;;;;;5.18;3.30;;;;;;;14.51;62.86;96851.60;127728;1093;113708;-95
2021/06/16 01:20:21;;;;;;;5.40;3.10;;;;;;;14.54;62.91;96866.22;127825;1093;28936;-94
2021/06/16 01:23:13;;;;;;;6.15;3.15;;;;;;;14.51;63.17;96864.15;127750;1093;113820;-94
2021/06/16 01:25:51;;;;;;;6.18;3.13;;;;;;;14.54;62.91;96867.01;127843;1092;28442;-93
2021/06/16 01:28:27;;;;;;;4.25;3.00;;;;;;;14.52;62.92;96861.19;127743;1093;113784;-93
2021/06/16 01:31:00;;;;;;;4.68;2.98;;;;;;;14.55;62.95;96862.46;127866;1093;31249;-93
2021/06/16 01:33:31;;;;;;;6.10;2.85;;;;;;;14.54;62.95;96863.55;127753;1092;114165;-95
2021/06/16 01:36:03;;;;;;;6.15;3.38;;;;;;;14.52;63.00;96855.06;127929;1093;25302;-93
2021/06/16 01:38:36;;;;;;;6.08;3.20;;;;;;;14.46;62.90;96849.02;127967;1093;27663;-93
2021/06/16 01:41:08;;;;;;;5.88;3.20;;;;;;;14.44;63.12;96858.41;127478;1093;113727;-91
2021/06/16 01:43:41;;;;;;;4.13;2.93;;;;;;;14.44;63.29;96845.86;127845;1093;23893;-92
2021/06/16 01:46:15;;;;;;;6.95;2.98;;;;;;;14.43;63.08;96854.92;127728;1093;113855;-93
2021/06/16 01:48:48;;;;;;;6.88;3.43;;;;;;;14.43;63.06;96851.46;127856;1094;26795;-93
2021/06/16 01:51:21;;;;;;;5.15;3.08;;;;;;;14.45;63.22;96857.31;127737;1093;113884;-93
2021/06/16 01:53:55;;;;;;;4.20;3.00;;;;;;;14.45;63.35;96858.11;127879;1093;27723;-92
2021/06/16 01:56:28;;;;;;;5.63;2.73;;;;;;;14.45;63.35;96862.66;127788;1093;45841;-93
2021/06/16 01:59:01;;;;;;;6.90;3.15;;;;;;;14.43;63.40;96859.47;127781;1092;113690;-93
2021/06/16 02:01:33;;;;;;;4.78;3.35;;;;;;;14.36;63.43;96861.75;127930;1093;25999;-94
2021/06/16 02:04:05;;;;;;;8.95;3.40;;;;;;;14.34;63.64;96866.56;127793;1093;114192;-92
2021/06/16 02:06:40;;;;;;;4.40;3.18;;;;;;;14.30;63.62;96861.04;127892;1093;23432;-92
2021/06/16 02:09:14;;;;;;;4.43;3.20;;;;;;;14.14;63.53;96857.86;127755;1093;114358;-93
2021/06/16 02:11:47;;;;;;;5.23;3.28;;;;;;;14.10;63.90;96859.55;127823;1093;44420;-93
2021/06/16 02:14:21;;;;;;;5.23;2.98;;;;;;;14.09;63.93;96852.64;127851;1093;26603;-93
2021/06/16 02:16:59;;;;;;;5.63;3.18;;;;;;;14.13;64.02;96858.95;127731;1093;114233;-93
2021/06/16 02:19:34;;;;;;;6.78;3.33;;;;;;;14.14;63.99;96863.20;127904;1093;25979;-94
2021/06/16 02:22:09;;;;;;;6.68;3.53;;;;;;;14.16;64.14;96862.90;127835;1092;114289;-93
2021/06/16 02:24:41;;;;;;;6.37;3.63;;;;;;;14.08;63.95;96858.27;127883;1093;24278;-94
2021/06/16 02:27:13;;;;;;;5.45;3.55;;;;;;;13.96;64.18;96864.85;127728;1093;114048;-94
2021/06/16 02:29:45;;;;;;;5.83;3.50;;;;;;;13.90;64.23;96868.67;127850;1092;27236;-93
2021/06/16 02:32:16;;;;;;;5.50;3.58;;;;;;;13.92;64.65;96868.38;127837;1093;27720;-92
2021/06/16 02:34:48;;;;;;;4.78;3.45;;;;;;;13.98;64.82;96875.22;127757;1092;114353;-93
2021/06/16 02:37:22;;;;;;;3.10;2.68;;;;;;;14.02;64.63;96873.54;127846;1093;31903;-93
2021/06/16 02:39:58;;;;;;;5.70;3.03;;;;;;;13.99;64.84;96871.47;127740;1093;114067;-95
2021/06/16 02:42:30;;;;;;;5.00;3.23;;;;;;;13.99;64.90;96871.47;127852;1092;27539;-93
2021/06/16 02:45:04;;;;;;;6.18;3.00;;;;;;;13.96;64.86;96867.52;127946;1093;26900;-94
2021/06/16 02:47:38;;;;;;;5.75;3.38;;;;;;;13.89;65.14;96875.09;127833;1093;114239;-94
2021/06/16 02:50:13;;;;;;;4.65;3.35;;;;;;;13.89;64.92;96876.96;127737;1093;23277;-93
2021/06/16 02:52:47;;;;;;;7.93;3.88;;;;;;;13.90;65.21;96876.67;127741;1093;114495;-91
2021/06/16 02:55:19;;;;;;;4.75;3.45;;;;;;;13.89;65.25;96888.41;127865;1093;25788;-95
2021/06/16 02:57:53;;;;;;;6.23;3.30;;;;;;;13.90;65.01;96891.87;127571;1093;114881;-93
2021/06/16 03:00:26;;;;;;;5.40;3.60;;;;;;;13.91;65.25;96886.24;127798;1093;24922;-94
2021/06/16 03:02:58;;;;;;;5.85;3.50;;;;;;;13.94;65.23;96887.56;127844;1092;27628;-93
2021/06/16 03:05:30;;;;;;;5.28;3.28;;;;;;;13.94;65.54;96891.02;127730;1093;113909;-93
2021/06/16 03:08:03;;;;;;;7.20;3.47;;;;;;;13.98;65.39;96891.21;127927;1093;26646;-93
2021/06/16 03:10:36;;;;;;;5.68;3.50;;;;;;;14.02;65.15;96892.20;127841;1093;117561;-94
2021/06/16 03:13:08;;;;;;;5.70;3.85;;;;;;;14.06;65.04;96887.06;127782;1092;25409;-92
2021/06/16 03:15:43;;;;;;;5.48;3.05;;;;;;;14.11;65.09;96890.45;127745;1093;114709;-93
2021/06/16 03:18:17;;;;;;;4.90;3.00;;;;;;;14.15;65.02;96899.44;127882;1093;27398;-93
2021/06/16 03:20:48;;;;;;;5.60;3.15;;;;;;;14.20;65.00;96894.00;127891;1093;26024;-92
2021/06/16 03:23:22;;;;;;;5.28;2.70;;;;;;;14.26;64.82;96898.17;127755;1091;113857;-92
2021/06/16 03:25:55;;;;;;;4.73;2.83;;;;;;;14.33;64.87;96905.78;127883;1092;23207;-93
2021/06/16 03:28:29;;;;;;;5.93;3.38;;;;;;;14.41;64.54;96909.66;127789;1092;113834;-91
2021/06/16 03:31:01;;;;;;;5.40;3.15;;;;;;;14.45;64.57;96911.45;127886;1093;35164;-91
2021/06/16 03:33:33;;;;;;;3.50;2.97;;;;;;;14.52;64.46;96909.20;127812;1092;113855;-91
2021/06/16 03:36:06;;;;;;;4.58;2.98;;;;;;;14.58;64.33;96909.89;127973;1093;23324;-91
2021/06/16 03:38:41;;;;;;;4.40;3.00;;;;;;;14.64;63.99;96907.91;127836;1093;27655;-92
2021/06/16 03:41:14;;;;;;;3.37;2.67;;;;;;;14.70;64.19;96904.85;127750;1093;113839;-92
2021/06/16 03:43:47;;;;;;;5.85;3.43;;;;;;;14.75;64.32;96899.41;127829;1093;27116;-93
2021/06/16 03:46:20;;;;;;;6.08;3.05;;;;;;;14.81;64.07;96908.12;127738;1092;114009;-92
2021/06/16 03:48:55;;;;;;;5.40;2.95;;;;;;;14.84;63.86;96905.64;127859;1093;26116;-93
2021/06/16 03:51:28;;;;;;;4.75;3.43;;;;;;;14.84;64.12;96910.97;127761;1093;113901;-92
2021/06/16 03:54:00;;;;;;;4.78;3.48;;;;;;;14.87;63.87;96908.80;127884;1093;30734;-92
2021/06/16 03:56:31;;;;;;;5.95;3.70;;;;;;;14.90;63.99;96913.53;127901;1093;28196;-91
2021/06/16 03:59:03;;;;;;;6.53;3.40;;;;;;;14.91;63.75;96902.55;127790;1093;114606;-93
2021/06/16 04:01:34;;;;;;;4.50;3.18;;;;;;;14.95;63.78;96908.11;127929;1093;34002;-92
2021/06/16 04:04:08;;;;;;;5.10;3.25;;;;;;;14.97;63.65;96906.72;127815;1093;113703;-92
2021/06/16 04:06:43;;;;;;;4.50;3.00;;;;;;;14.99;63.86;96904.53;127831;1093;26227;-93
2021/06/16 04:09:16;;;;;;;5.45;3.60;;;;;;;15.06;63.83;96909.45;127751;1093;113998;-92
2021/06/16 04:11:47;;;;;;;5.13;3.00;;;;;;;15.12;63.65;96913.61;127861;1093;25161;-93
2021/06/16 04:14:18;;;;;;;4.55;2.68;;;;;;;15.21;63.59;96911.83;127814;1093;28882;-92
2021/06/16 04:16:58;;;;;;;5.88;3.15;;;;;;;15.26;63.48;96916.26;127740;1093;113799;-92
2021/06/16 04:19:29;;;;;;;5.63;3.40;;;;;;;15.32;63.21;96912.38;127882;1093;30652;-92
2021/06/16 04:22:01;;;;;;;4.08;2.88;;;;;;;15.34;63.39;96920.88;127777;1092;114006;-91
2021/06/16 04:24:32;;;;;;;5.33;3.15;;;;;;;15.40;62.92;96920.48;127916;1093;40597;-91
2021/06/16 04:27:04;;;;;;;5.10;2.53;;;;;;;15.47;62.84;96919.26;127896;1093;32493;-92
2021/06/16 04:29:36;;;;;;;5.90;2.88;;;;;;;15.53;62.87;96915.39;127798;1093;113826;-91
2021/06/16 04:32:11;;;;;;;7.20;2.93;;;;;;;15.58;62.73;96920.61;127868;1093;28738;-92
2021/06/16 04:34:43;;;;;;;4.50;2.65;;;;;;;15.63;62.60;96915.20;127687;1093;113892;-91
2021/06/16 04:37:15;;;;;;;3.95;2.75;;;;;;;15.71;62.74;96925.16;127838;1093;26693;-92
2021/06/16 04:39:46;;;;;;;6.00;2.80;;;;;;;15.80;62.61;96927.91;127716;1093;114018;-93
2021/06/16 04:42:18;;;;;;;7.10;3.38;;;;;;;15.86;62.45;96927.46;127836;1093;27922;-91
2021/06/16 04:44:50;;;;;;;4.83;3.28;;;;;;;15.96;62.60;96927.23;127838;1093;30122;-91
2021/06/16 04:47:22;;;;;;;5.08;3.25;;;;;;;16.04;62.30;96926.48;127732;1093;113714;-91
2021/06/16 04:49:53;;;;;;;6.40;3.63;;;;;;;16.16;62.21;96925.92;127862;1093;26918;-92
2021/06/16 04:52:25;;;;;;;4.58;2.90;;;;;;;16.26;62.19;96927.56;127767;1093;114081;-92
2021/06/16 04:54:56;;;;;;;4.65;3.08;;;;;;;16.38;62.18;96933.14;127841;1093;55580;-92
2021/06/16 04:57:27;;;;;;;6.60;3.00;;;;;;;16.51;62.01;96926.91;127753;1093;114195;-92
2021/06/16 04:59:59;;;;;;;6.60;2.85;;;;;;;16.65;61.66;96926.81;127814;1093;24124;-92
2021/06/16 05:02:30;;;;;;;6.13;2.93;;;;;;;16.78;61.57;96922.48;127885;1093;27883;-92
2021/06/16 05:05:02;;;;;;;6.48;2.80;;;;;;;16.87;61.27;96933.98;127773;1093;113833;-92
2021/06/16 05:07:33;;;;;;;6.55;2.90;;;;;;;17.00;61.03;96935.77;127891;1093;24393;-92
2021/06/16 05:10:06;;;;;;;4.25;2.75;;;;;;;17.14;60.48;96936.42;127772;1093;114358;-92
2021/06/16 05:12:37;;;;;;;6.80;2.93;;;;;;;17.29;60.27;96935.19;127825;1093;31313;-91
2021/06/16 05:15:11;;;;;;;4.23;2.50;;;;;;;17.50;60.14;96933.49;127826;1093;26724;-92
2021/06/16 05:17:43;;;;;;;5.73;2.75;;;;;;;17.77;60.03;96928.95;127760;1093;114258;-92
2021/06/16 05:20:16;;;;;;;6.68;2.70;;;;;;;18.05;60.28;96935.56;127828;1093;29414;-92
2021/06/16 05:22:49;;;;;;;6.48;3.60;;;;;;;18.54;60.99;96941.42;127750;1093;114345;-93
2021/06/16 05:25:20;;;;;;;6.70;3.00;;;;;;;19.49;60.36;96932.91;127847;1093;24749;-93
2021/06/16 05:27:52;;;;;;;4.58;3.03;;;;;;;20.58;59.38;96923.71;127763;1093;114095;-91
2021/06/16 05:30:26;;;;;;;4.33;3.00;;;;;;;21.57;57.23;96931.43;127819;1092;26299;-93
2021/06/16 05:32:57;;;;;;;3.43;2.48;;;;;;;22.36;55.33;96944.41;127865;1093;27177;-92
2021/06/16 05:35:29;;;;;;;5.33;2.60;;;;;;;23.01;54.50;96942.98;127717;1093;114166;-92
2021/06/16 05:38:00;;;;;;;5.83;3.28;;;;;;;23.75;53.24;96932.27;127874;1093;26385;-93
2021/06/16 05:40:32;;;;;;;5.45;2.93;;;;;;;24.34;52.17;96935.73;127733;1093;114253;-93
2021/06/16 05:43:03;;;;;;;4.15;2.53;;;;;;;24.84;50.76;96942.82;127924;1093;26692;-92
2021/06/16 05:45:35;;;;;;;3.88;2.60;;;;;;;25.33;50.44;96936.61;127821;1093;114022;-91
2021/06/16 05:48:07;;;;;;;5.85;2.83;;;;;;;25.55;49.02;96934.98;127847;1092;26739;-90
2021/06/16 05:50:39;;;;;;;3.88;2.63;;;;;;;25.90;48.66;96940.10;127829;1093;31219;-93
2021/06/16 05:53:12;;;;;;;4.68;2.68;;;;;;;26.43;47.19;96942.66;127734;1092;114503;-94
2021/06/16 05:55:44;;;;;;;5.85;2.85;;;;;;;26.60;46.55;96931.98;127854;1092;24682;-93
2021/06/16 05:58:15;;;;;;;6.78;2.83;;;;;;;26.97;46.09;96943.92;127756;1093;113720;-93
2021/06/16 06:00:47;;;;;;;4.05;2.73;;;;;;;27.13;45.10;96939.02;127862;1093;35048;-93
2021/06/16 06:03:18;;;;;;;4.15;2.85;;;;;;;27.46;44.59;96941.59;127872;1093;24099;-93
2021/06/16 06:05:49;;;;;;;4.18;2.60;;;;;;;27.78;43.62;96938.27;127760;1093;113542;-93
2021/06/16 06:08:21;;;;;;;6.50;2.88;;;;;;;28.23;42.81;96941.55;127880;1093;23358;-93
2021/06/16 06:10:53;;;;;;;5.28;3.15;;;;;;;28.42;41.81;96933.04;127731;1093;113869;-95
2021/06/16 06:13:25;;;;;;;6.13;3.30;;;;;;;28.80;41.28;96947.91;127879;1093;26746;-92
2021/06/16 06:15:56;;;;;;;4.90;2.85;;;;;;;29.13;40.58;96938.56;127749;1093;114021;-91
2021/06/16 06:18:27;;;;;;;5.25;2.80;;;;;;;29.50;39.46;96946.34;127885;1093;24959;-90
2021/06/16 06:20:59;;;;;;;5.45;2.78;;;;;;;29.34;38.59;96954.16;127875;1093;24034;-92
2021/06/16 06:23:30;;;;;;;3.83;2.70;;;;;;;28.87;38.37;96953.41;127758;1093;115159;-91
2021/06/16 06:26:02;;;;;;;5.73;2.60;;;;;;;29.50;38.43;96957.27;127839;1093;25013;-91
2021/06/16 06:28:33;;;;;;;6.60;2.80;;;;;;;30.27;38.05;96959.38;127822;1093;113877;-91
2021/06/16 06:31:04;;;;;;;4.63;2.47;;;;;;;30.79;37.09;96960.23;127932;1093;25962;-95
2021/06/16 06:33:36;;;;;;;6.60;2.70;;;;;;;31.42;36.60;96968.36;127830;1092;113899;-92
2021/06/16 06:36:08;;;;;;;7.20;3.18;;;;;;;31.52;35.28;96962.75;127874;1093;26284;-91
2021/06/16 06:38:39;;;;;;;6.50;2.90;;;;;;;31.46;35.70;96961.66;127880;1093;26371;-91
2021/06/16 06:41:12;;;;;;;5.68;3.28;;;;;;;30.74;34.34;96957.94;127783;1093;113866;-91
2021/06/16 06:43:44;;;;;;;4.55;3.00;;;;;;;29.94;34.64;96961.43;127899;1093;28710;-92
2021/06/16 06:46:16;;;;;;;4.43;3.23;;;;;;;30.07;35.71;96959.06;127716;1093;113130;-91
2021/06/16 06:48:48;;;;;;;4.58;2.68;;;;;;;30.76;35.20;96955.57;127865;1093;28419;-92
2021/06/16 06:51:19;;;;;;;4.97;2.83;;;;;;;30.98;34.32;96962.45;127869;1093;25238;-91
2021/06/16 06:53:51;;;;;;;5.58;2.95;;;;;;;30.17;33.49;96963.72;127756;1093;114154;-91
2021/06/16 06:56:22;;;;;;;4.38;3.03;;;;;;;29.60;35.38;96960.38;127865;1093;25906;-93
2021/06/16 06:58:54;;;;;;;5.98;2.45;;;;;;;30.38;36.08;96955.39;127754;1093;113710;-94
2021/06/16 07:01:25;;;;;;;4.80;3.00;;;;;;;29.89;33.36;96955.61;127752;1093;28676;-92
2021/06/16 07:04:00;;;;;;;4.58;2.75;;;;;;;28.98;34.07;96954.16;127761;1092;113870;-92
2021/06/16 07:06:34;;;;;;;5.30;2.90;;;;;;;28.87;34.74;96958.87;127879;1093;31244;-93
2021/06/16 07:09:06;;;;;;;5.93;3.55;;;;;;;29.61;35.32;96956.47;127900;1093;28345;-91
2021/06/16 07:11:37;;;;;;;8.10;3.33;;;;;;;29.75;34.14;96956.44;127754;1093;113851;-90
2021/06/16 07:14:09;;;;;;;4.50;2.93;;;;;;;30.59;34.57;96950.98;127880;1093;24695;-91
2021/06/16 07:16:40;;;;;;;7.23;3.50;;;;;;;31.51;34.57;96952.98;127739;1093;114161;-91
2021/06/16 07:19:12;;;;;;;4.58;2.90;;;;;;;31.96;33.86;96950.17;127865;1093;24308;-92
2021/06/16 07:21:43;;;;;;;8.08;3.23;;;;;;;32.43;33.55;96945.66;127765;1093;113903;-92
2021/06/16 07:24:17;;;;;;;5.03;3.08;;;;;;;32.94;32.83;96957.47;127889;1092;27075;-91
2021/06/16 07:26:48;;;;;;;6.30;3.50;;;;;;;33.42;32.06;96948.04;127884;1093;32288;-92
2021/06/16 07:29:20;;;;;;;6.40;3.08;;;;;;;33.56;31.27;96949.75;127742;1093;113832;-92
2021/06/16 07:31:52;;;;;;;4.45;3.38;;;;;;;33.57;32.04;96943.83;127854;1093;27314;-92
2021/06/16 07:34:24;;;;;;;6.38;3.38;;;;;;;34.07;31.86;96945.63;127753;1092;113737;-94
2021/06/16 07:36:55;;;;;;;8.15;3.75;;;;;;;32.88;29.41;96948.14;127888;1093;27029;-91
2021/06/16 07:39:27;;;;;;;4.83;3.55;;;;;;;31.74;30.52;96954.34;127874;1093;24862;-90
2021/06/16 07:41:59;;;;;;;4.58;2.93;;;;;;;31.90;31.33;96940.83;127744;1093;113581;-90
2021/06/16 07:44:31;;;;;;;5.73;3.50;;;;;;;32.15;31.22;96946.78;127874;1093;26851;-91
2021/06/16 07:47:02;;;;;;;4.75;3.60;;;;;;;32.47;31.74;96951.86;127857;1093;113737;-92
2021/06/16 07:49:34;;;;;;;5.45;3.55;;;;;;;32.42;30.77;96952.34;127967;1093;22826;-91
2021/06/16 07:52:06;;;;;;;6.43;3.70;;;;;;;32.22;32.04;96953.36;127857;1092;113878;-92
2021/06/16 07:54:37;;;;;;;6.13;3.65;;;;;;;32.95;31.44;96959.03;127860;1092;27548;-89
2021/06/16 07:57:09;;;;;;;7.30;3.63;;;;;;;33.63;31.19;96964.13;127875;1093;25694;-92
2021/06/16 07:59:41;;;;;;;7.38;3.53;;;;;;;34.07;29.88;96958.62;127790;1093;113890;-93
2021/06/16 08:02:12;;;;;;;8.85;3.38;;;;;;;34.54;28.93;96961.94;127832;1093;28150;-93
2021/06/16 08:04:44;;;;;;;6.65;3.60;;;;;;;35.03;28.90;96965.52;127715;1093;113745;-92
2021/06/16 08:07:15;;;;;;;6.23;3.63;;;;;;;35.34;28.59;96962.41;127783;1092;29581;-93
2021/06/16 08:09:47;;;;;;;5.55;3.23;;;;;;;35.53;28.44;96960.76;127751;1092;114578;-92
2021/06/16 08:12:19;;;;;;;6.50;4.00;;;;;;;35.63;28.02;96962.46;127868;1093;26299;-91
2021/06/16 08:14:50;;;;;;;6.88;3.88;;;;;;;35.46;27.36;96972.73;127850;1092;26183;-92
2021/06/16 08:17:22;;;;;;;5.58;3.55;;;;;;;35.39;28.24;96973.70;127736;1093;113855;-92
2021/06/16 08:19:53;;;;;;;6.50;3.18;;;;;;;35.67;28.08;96966.66;127879;1093;26631;-92
2021/06/16 08:22:25;;;;;;;4.43;3.40;;;;;;;35.57;26.46;96966.95;127757;1093;114146;-92
2021/06/16 08:25:00;;;;;;;6.77;3.70;;;;;;;33.57;26.20;96978.80;127837;1093;37640;-92
2021/06/16 08:27:31;;;;;;;7.05;3.60;;;;;;;32.31;27.76;96975.62;127863;1092;24806;-95
2021/06/16 08:30:03;;;;;;;5.13;3.83;;;;;;;32.00;28.94;96981.07;127854;1093;113591;-92
2021/06/16 08:32:35;;;;;;;5.15;3.95;;;;;;;31.63;29.71;96984.58;127912;1093;26039;-92
2021/06/16 08:35:09;;;;;;;5.05;3.45;;;;;;;31.53;29.16;96978.03;127819;1093;112971;-90
2021/06/16 08:37:41;;;;;;;7.28;3.90;;;;;;;30.97;29.60;96973.81;127874;1093;25736;-94
2021/06/16 08:40:14;;;;;;;5.55;3.63;;;;;;;30.69;30.77;96980.27;127765;1093;114591;-94
2021/06/16 08:42:47;;;;;;;5.58;3.78;;;;;;;29.94;29.49;96983.30;127881;1093;25825;-91
2021/06/16 08:45:20;;;;;;;5.75;3.88;;;;;;;29.52;30.73;96992.39;127849;1093;27636;-90
2021/06/16 08:47:53;;;;;;;6.08;4.03;;;;;;;29.04;31.86;96981.88;127719;1093;113885;-92
2021/06/16 08:50:24;;;;;;;6.18;4.25;;;;;;;29.17;32.43;96982.27;127852;1092;25608;-92
2021/06/16 08:52:56;;;;;;;8.15;4.33;;;;;;;28.87;32.28;96986.16;127748;1093;114269;-92
2021/06/16 08:55:27;;;;;;;7.48;4.45;;;;;;;28.78;33.03;96988.45;127841;1092;38947;-92
2021/06/16 08:57:59;;;;;;;6.68;4.23;;;;;;;28.60;33.13;96979.47;127783;1093;113184;-91
2021/06/16 09:00:30;;;;;;;6.03;4.00;;;;;;;28.69;33.14;96985.31;127867;1093;30174;-93
2021/06/16 09:03:02;;;;;;;5.40;4.25;;;;;;;28.74;33.90;96978.70;127864;1092;25417;-92
2021/06/16 09:05:42;;;;;;;5.63;4.05;;;;;;;28.72;34.38;96984.55;127754;1093;113666;-92
2021/06/16 09:08:23;;;;;;;6.83;4.60;;;;;;;28.84;34.54;96983.38;127879;1093;26654;-92
2021/06/16 09:10:57;;;;;;;6.45;3.90;;;;;;;28.93;34.01;96983.81;127787;1093;113716;-91
2021/06/16 09:13:31;;;;;;;5.85;3.90;;;;;;;28.70;34.35;96981.41;127858;1093;29082;-92
2021/06/16 09:16:23;;;;;;;6.85;3.78;;;;;;;28.28;35.02;96988.32;127799;1093;113988;-92
2021/06/16 09:18:55;;;;;;;6.48;4.00;;;;;;;27.93;34.82;96999.06;127843;1093;29067;-92
2021/06/16 09:21:38;;;;;;;6.55;4.33;;;;;;;27.51;34.60;97001.13;127884;1092;25433;-91
2021/06/16 09:24:10;;;;;;;7.10;4.15;;;;;;;26.93;35.44;96995.60;127823;1092;114154;-92
2021/06/16 09:26:43;;;;;;;6.98;4.28;;;;;;;27.12;35.58;96998.12;127891;1093;26739;-91
2021/06/16 09:29:15;;;;;;;6.73;4.45;;;;;;;26.88;36.16;96993.98;127738;1092;114396;-93
2021/06/16 09:31:47;;;;;;;7.00;4.33;;;;;;;26.71;37.21;96996.55;127861;1093;26016;-92
2021/06/16 09:34:20;;;;;;;5.25;3.83;;;;;;;26.97;37.07;96988.24;127730;1093;113911;-94
2021/06/16 09:36:54;;;;;;;8.03;4.58;;;;;;;27.11;37.54;96999.28;127883;1093;29071;-92
2021/06/16 09:39:28;;;;;;;7.48;4.03;;;;;;;27.37;38.34;96989.36;127860;1093;26015;-91
2021/06/16 09:42:01;;;;;;;8.23;4.08;;;;;;;27.63;38.32;96991.88;127767;1093;113890;-93
2021/06/16 09:44:49;;;;;;;6.13;4.10;;;;;;;27.82;38.36;96992.78;127853;1093;27221;-92
2021/06/16 09:47:22;;;;;;;9.78;4.30;;;;;;;27.49;36.77;96987.12;127761;1093;114338;-93
2021/06/16 09:49:57;;;;;;;6.87;4.00;;;;;;;26.79;36.68;96987.31;127790;1093;26382;-93
2021/06/16 09:52:38;;;;;;;7.37;5.13;;;;;;;26.42;37.48;96988.10;127752;1093;113893;-92
2021/06/16 09:55:30;;;;;;;5.97;4.30;;;;;;;26.15;37.27;96984.66;127816;1093;27150;-93
2021/06/16 09:58:05;;;;;;;7.57;4.53;;;;;;;26.11;38.14;96985.78;127775;1093;114226;-95
2021/06/16 10:00:39;;;;;;;7.93;4.35;;;;;;;26.30;38.79;96988.32;127850;1093;30498;-93
2021/06/16 10:03:13;;;;;;;6.78;3.70;;;;;;;26.68;39.45;96987.20;127846;1093;28780;-91
2021/06/16 10:06:06;;;;;;;6.68;4.83;;;;;;;26.49;37.84;96985.47;127744;1093;114284;-91
2021/06/16 10:08:42;;;;;;;7.35;4.33;;;;;;;26.23;39.45;96990.97;127924;1093;25498;-92
2021/06/16 10:11:15;;;;;;;6.15;4.18;;;;;;;26.46;39.69;96986.19;127774;1092;113841;-93
2021/06/16 10:13:47;;;;;;;6.18;3.98;;;;;;;26.56;39.22;96985.53;127849;1093;33019;-93
2021/06/16 10:16:19;;;;;;;6.83;4.20;;;;;;;26.53;38.56;96978.13;127731;1092;114471;-94
2021/06/16 10:18:52;;;;;;;5.48;3.80;;;;;;;26.49;39.69;96973.81;127846;1093;25326;-93
2021/06/16 10:21:24;;;;;;;6.05;4.08;;;;;;;26.69;39.58;96971.66;127856;1093;26382;-93
2021/06/16 10:23:56;;;;;;;6.38;4.35;;;;;;;26.67;38.77;96976.70;127742;1093;113704;-94
2021/06/16 10:26:32;;;;;;;5.58;4.10;;;;;;;26.15;39.20;96981.16;127873;1093;27351;-93
2021/06/16 10:29:15;;;;;;;5.60;4.58;;;;;;;26.17;39.63;96973.41;127897;1093;114052;-93
2021/06/16 10:31:47;;;;;;;7.50;4.18;;;;;;;26.26;39.80;96977.41;127839;1093;39596;-93
2021/06/16 10:34:19;;;;;;;7.93;3.63;;;;;;;26.42;39.52;96968.29;127756;1092;113843;-92
2021/06/16 10:37:05;;;;;;;6.45;3.83;;;;;;;26.36;39.53;96967.07;127879;1092;26333;-93
2021/06/16 10:39:37;;;;;;;6.23;3.70;;;;;;;26.41;40.68;96970.23;127902;1093;24901;-92
2021/06/16 10:42:08;;;;;;;5.28;3.58;;;;;;;26.69;40.41;96974.39;127692;1093;113664;-93
2021/06/16 10:44:41;;;;;;;5.65;4.08;;;;;;;26.88;40.97;96974.95;127863;1093;31187;-92
2021/06/16 10:47:13;;;;;;;6.35;3.55;;;;;;;26.96;39.96;96983.18;127782;1092;114500;-94
2021/06/16 10:49:55;;;;;;;6.08;3.88;;;;;;;26.28;38.83;96974.33;127852;1093;27150;-94
2021/06/16 10:52:29;;;;;;;9.23;4.53;;;;;;;26.03;39.68;96974.81;127778;1093;113977;-93
2021/06/16 10:55:03;;;;;;;7.35;4.00;;;;;;;26.17;40.66;96973.41;127860;1093;27058;-93
2021/06/16 10:57:35;;;;;;;6.45;4.05;;;;;;;26.34;40.83;96967.42;127940;1093;29189;-93
2021/06/16 11:00:26;;;;;;;6.20;3.98;;;;;;;26.55;40.60;96967.65;127812;1092;114096;-93
2021/06/16 11:02:57;;;;;;;7.67;4.70;;;;;;;26.46;39.35;96967.16;127868;1093;29450;-93
2021/06/16 11:05:34;;;;;;;6.83;4.50;;;;;;;25.79;39.09;96969.87;127752;1093;115048;-94
2021/06/16 11:08:07;;;;;;;5.55;4.13;;;;;;;25.70;40.95;96969.35;127942;1093;29725;-93
2021/06/16 11:13:45;;;;;;;6.00;3.78;;;;;;;26.08;40.74;96964.79;127378;1093;36237;-94
2021/06/16 11:16:45;;;;;;;5.90;4.00;;;;;;;26.10;39.95;96971.41;127312;1093;114508;-95
2021/06/16 11:19:49;;;;;;;4.93;3.53;;;;;;;26.00;39.86;96970.13;127399;1093;28426;-93
2021/06/16 11:22:46;;;;;;;6.28;3.50;;;;;;;25.82;39.61;96958.27;127345;1093;113337;-93
2021/06/16 11:25:40;;;;;;;5.10;3.93;;;;;;;25.84;40.39;96969.53;127830;1093;26433;-93
2021/06/16 11:28:18;;;;;;;6.10;4.33;;;;;;;25.57;40.75;96957.90;127739;1093;113381;-92
2021/06/16 11:31:05;;;;;;;6.23;4.08;;;;;;;25.83;41.41;96975.34;127902;1092;33440;-93
2021/06/16 11:33:54;;;;;;;5.78;3.60;;;;;;;25.98;41.42;96966.22;127871;1092;24580;-93
2021/06/16 11:36:41;;;;;;;5.25;3.60;;;;;;;26.24;41.57;96966.14;127651;1093;112990;-92
2021/06/16 11:39:22;;;;;;;5.68;3.43;;;;;;;26.16;40.90;96956.33;127667;1093;28399;-94
2021/06/16 11:41:54;;;;;;;5.63;3.45;;;;;;;26.27;41.43;96959.17;127429;1093;113533;-93
2021/06/16 11:44:26;;;;;;;5.45;3.68;;;;;;;26.42;40.32;96955.48;127775;1093;27498;-94
2021/06/16 11:46:59;;;;;;;4.50;3.20;;;;;;;26.52;40.44;96957.53;127484;1093;113311;-93
2021/06/16 11:49:32;;;;;;;4.60;3.55;;;;;;;26.67;40.84;96963.10;127589;1093;23074;-92
2021/06/16 11:52:05;;;;;;;5.85;3.30;;;;;;;26.66;39.80;96959.60;127877;1092;27202;-92
2021/06/16 11:54:38;;;;;;;5.15;3.35;;;;;;;26.44;39.86;96960.54;127691;1093;114068;-93